Impacts TAF Board
For situational awareness. Not to be used for flight planning purposes.
IDs:

KCLT - Charlotte/Douglas In, NC, US

Issued at 2339 UTC 22 Sep 2018
Updated at 0209 UTC 23 Sep 2018
Potential Impact None Slight Moderate High
Time0152Z 23/03Z 23/04Z 23/05Z 23/06Z 23/07Z 23/08Z 23/09Z 23/10Z 23/11Z 23/12Z 23/13Z 23/14Z 23/15Z>>
Type OBS PRVL PRVL PRVL PRVL PRVL PRVL PRVL PRVL PRVL PRVL PRVL PRVL PRVL
VIS 9 >6 >6 >6 >6 >6 >6 >6 >6 >6 >6 >6 >6 >6
CIG -- -- -- -- -- -- 70 70 70 70 25 25 25 25
Cover FEW FEW FEW FEW FEW FEW BKN BKN BKN BKN OVC OVC OVC OVC
FltCat VFR VFR VFR VFR VFR VFR VFR VFR VFR VFR MVFR MVFR MVFR MVFR
WX -- -- -- -- -- -- -- -- -- -- -- -- -- --
WDir 200 170 170 170 170 170 150 150 150 150 40 40 40 40
WSpd 5 4 4 4 4 4 3 3 3 3 4 4 4 4
WGst -- -- -- -- -- -- -- -- -- -- -- -- -- --
Raw TAF
KCLT 222339Z 2300/2406 17004KT P6SM FEW250
  FM230800 15003KT P6SM BKN070
  FM231200 04004KT P6SM BKN025 OVC035
  FM231800 05007KT P6SM SCT026 BKN045
  PROB30 2319/2324 4SM -SHRA OVC025
  FM240000 05007KT 6SM BR SCT007 OVC015
  PROB30 2400/2406 4SM -RA BR OVC007


Raw METAR
KCLT 230152Z 20005KT 9SM FEW250 24/21 A3008 RMK AO2 SLP178 T02440206
KCLT 230052Z 22004KT 9SM FEW050 FEW250 24/21 A3006 RMK AO2 SLP172 T02440211
KCLT 222352Z 19004KT 9SM FEW050 FEW250 26/21 A3005 RMK AO2 SLP168 T02560206 10317 20256 53001

METAR Board
Radar Display
Forecast Discussion
For situational awareness. Not to be used for flight planning purposes.